WEATHER DATA

YESTERDAY
Time Temp. Dewp. Hum. Wind dir Wind speed Wind gust Bar. 1h Prec. 24h Prec.
00:03 22.2 10 46 135 0.3 0.8 1016.4 0.0000 0.0000
00:14 22.4 9.6 44 90 0.3 0.6 1016.5 0.0000 0.0000
00:24 22.6 9.4 43 135 0.3 0.8 1016.4 0.0000 0.0000
00:34 22.8 9.2 42 90 0.3 0.8 1016.5 0.0000 0.0000
00:44 22.9 9.3 42 126 0.3 0.6 1016.5 0.0000 0.0000
00:54 23 9.1 41 90 0.3 0.6 1016.5 0.0000 0.0000
01:04 22.9 9.3 42 128 0.6 0.8 1016.4 0.0000 0.0000
01:14 22.8 9.2 42 135 0.3 0.8 1016.4 0.0000 0.0000
01:24 22.7 9.5 43 135 0.6 1.4 1016.4 0.0000 0.0000
01:34 22.5 9.3 43 135 0.6 1.4 1016.2 0.0000 0.0000
01:44 22.4 9.6 44 130 0.6 1.4 1016.1 0.0000 0.0000
01:54 22.3 9.5 44 133 0.6 1.4 1016.1 0.0000 0.0000
02:04 22.3 9.8 45 128 0.6 1.9 1015.9 0.0000 0.0000
02:14 22.3 9.8 45 131 0.8 2.5 1015.9 0.0000 0.0000
02:24 22.4 9.9 45 90 0.6 1.4 1015.9 0.0000 0.0000
02:34 22.5 10 45 90 0.6 1.7 1015.8 0.0000 0.0000
02:44 22.6 10.1 45 90 0.3 1.4 1015.9 0.0000 0.0000
02:54 22.6 10.1 45 67 0.6 1.9 1015.8 0.0000 0.0000
03:04 22.7 10.2 45 40 0.3 1.4 1015.8 0.0000 0.0000
03:15 22.7 10.2 45 39 0.3 1.1 1015.8 0.0000 0.0000
03:24 22.6 10.1 45 31 0.6 1.7 1015.8 0.0000 0.0000
03:34 22.5 10.3 46 34 0.3 1.4 1015.8 0.0000 0.0000
03:45 22.6 10.7 47 14 0.6 1.9 1015.9 0.0000 0.0000
03:55 22.6 10.7 47 338 0.3 1.1 1015.8 0.0000 0.0000
04:04 22.5 11 48 300 0.6 1.7 1016.1 0.0000 0.0000
04:14 22.4 11.2 49 176 0.8 2.5 1015.9 0.0000 0.0000
04:25 22.3 11.7 51 163 0.8 1.9 1016.2 0.0000 0.0000
04:35 22.3 11.7 51 270 0.6 1.4 1016.1 0.0000 0.0000
04:44 22.2 11.9 52 142 0.8 3.1 1016.2 0.0000 0.0000
04:55 22.1 11.8 52 171 0.6 2.2 1016.3 0.0000 0.0000
05:05 22 12 53 189 0.6 2.2 1016.3 0.0000 0.0000
05:15 22 12 53 351 0.6 1.1 1016.4 0.0000 0.0000
05:25 21.9 12.2 54 15 0.3 1.4 1016.5 0.0000 0.0000
05:35 21.8 12.1 54 293 0.6 1.4 1016.5 0.0000 0.0000
05:45 21.7 12.3 55 33 0.6 1.7 1016.6 0.0000 0.0000
05:55 21.6 12.5 56 19 0.6 2.5 1016.6 0.0000 0.0000
06:06 21.5 12.6 57 34 0.6 1.9 1016.6 0.0000 0.0000
06:15 21.3 12.7 58 52 0.6 1.9 1016.9 0.0000 0.0000
06:25 21.2 12.9 59 41 0.6 1.9 1017 0.0000 0.0000
06:35 21 12.9 60 51 0.6 1.9 1017 0.0000 0.0000
06:46 21 12.9 60 49 0.6 1.9 1016.9 0.0000 0.0000
06:55 21 12.9 60 24 0.6 1.9 1017 0.0000 0.0000
07:05 21 12.7 59 90 0.8 2.2 1017.1 0.0000 0.0000
07:16 21.4 12.5 57 12 0.8 1.9 1017.2 0.0000 0.0000
07:25 21.9 12.7 56 45 0.6 1.1 1017.2 0.0000 0.0000
07:35 22.2 12.7 55 49 1.1 3.1 1017.4 0.0000 0.0000
07:45 22.8 12.7 53 42 0.8 2.5 1017.2 0.0000 0.0000
07:55 23.4 12.7 51 90 1.1 6.1 1017.2 0.0000 0.0000
08:05 23.9 12.9 50 56 0.8 2.2 1017.1 0.0000 0.0000
08:15 24.3 12.6 48 51 0.8 3.6 1017.2 0.0000 0.0000
08:25 24.6 12.9 48 90 1.1 2.8 1017.2 0.0000 0.0000
08:35 24.9 12.5 46 59 1.1 3.9 1017.5 0.0000 0.0000
08:45 25.2 12.1 44 82 1.1 3.3 1017.5 0.0000 0.0000
08:55 25.2 12.4 45 64 0.8 2.2 1017.4 0.0000 0.0000
09:05 25.3 12.5 45 66 1.1 2.5 1017.5 0.0000 0.0000
09:15 25.8 12.3 43 125 1.1 3.6 1017.5 0.0000 0.0000
09:25 26.1 12.2 42 101 1.7 4.2 1017.5 0.0000 0.0000
09:35 26.1 12.2 42 90 1.1 3.9 1017.5 0.0000 0.0000
09:45 26.4 12.1 41 75 1.1 3.1 1017.7 0.0000 0.0000
09:55 26.6 12.3 41 100 1.1 3.6 1017.5 0.0000 0.0000
10:05 26.7 12 40 82 1.1 2.5 1017.4 0.0000 0.0000
10:15 26.6 11.9 40 72 1.4 4.4 1017.2 0.0000 0.0000
10:25 26.7 12.4 41 76 1.1 3.1 1017.1 0.0000 0.0000
10:35 26.9 11.8 39 81 1.1 3.9 1017.1 0.0000 0.0000
10:45 27.2 10.4 35 100 1.4 5.6 1017 0.0000 0.0000
10:55 27.3 11.3 37 53 1.1 2.8 1016.9 0.0000 0.0000
11:05 27.3 10.5 35 66 1.4 5.3 1016.8 0.0000 0.0000
11:16 27.5 10.3 34 68 1.7 3.6 1016.6 0.0000 0.0000
11:25 27.6 9.9 33 62 1.1 5 1016.6 0.0000 0.0000
11:35 27.5 10.3 34 45 1.4 4.4 1016.5 0.0000 0.0000
11:46 27.9 9.7 32 68 1.1 3.1 1016.3 0.0000 0.0000
11:55 28 10.2 33 79 1.7 3.3 1016.1 0.0000 0.0000
12:05 28.4 10.1 32 74 1.1 4.7 1016.1 0.0000 0.0000
12:15 28.4 8.2 28 59 1.1 3.9 1015.8 0.0000 0.0000
12:26 28.7 8.4 28 76 1.1 5.3 1015.8 0.0000 0.0000
12:35 28.7 8.9 29 82 1.1 3.9 1015.5 0.0000 0.0000
12:45 28.9 9.1 29 97 1.4 4.7 1015.6 0.0000 0.0000
12:56 29 8.7 28 66 1.4 4.2 1015.4 0.0000 0.0000
13:06 29.3 9.9 30 57 1.1 3.3 1015.1 0.0000 0.0000
13:15 29.5 8 26 90 1.1 2.8 1015 0.0000 0.0000
13:26 29.6 8.1 26 55 1.1 4.2 1014.9 0.0000 0.0000
13:36 29.8 7.7 25 111 1.1 4.7 1014.7 0.0000 0.0000
13:45 30.2 6.1 22 120 1.1 5.3 1014.7 0.0000 0.0000
13:55 30.2 6.1 22 146 1.4 3.9 1014.3 0.0000 0.0000
14:06 30.7 6.6 22 18 0.8 2.5 1014.2 0.0000 0.0000
14:16 30.5 7 23 90 1.4 4.4 1014.2 0.0000 0.0000
14:25 30.6 6.5 22 119 1.4 3.1 1014.1 0.0000 0.0000
14:36 30.1 6.1 22 48 1.1 2.5 1013.9 0.0000 0.0000
14:46 30 6.6 23 71 1.1 3.6 1013.9 0.0000 0.0000
14:56 29.9 5.2 21 81 1.1 3.3 1013.7 0.0000 0.0000
15:05 29.8 4.4 20 77 0.8 2.8 1013.8 0.0000 0.0000
15:16 29.7 5.7 22 45 0.6 2.8 1013.8 0.0000 0.0000
15:26 29.6 5 21 90 1.1 3.3 1013.6 0.0000 0.0000
15:35 29.4 5.5 22 74 1.1 3.9 1013.7 0.0000 0.0000
15:46 29.6 4.3 20 90 0.8 2.5 1013.6 0.0000 0.0000
15:56 29.5 3.5 19 62 1.1 3.1 1013.6 0.0000 0.0000
16:06 29.3 4 20 90 1.1 3.9 1013.5 0.0000 0.0000
16:16 29.2 4.7 21 42 0.8 3.3 1013.4 0.0000 0.0000
16:26 29 4.5 21 67 0.6 2.8 1013.5 0.0000 0.0000
16:36 28.9 4.4 21 78 0.8 3.3 1013.6 0.0000 0.0000
16:46 28.7 3.5 20 45 0.6 1.7 1013.5 0.0000 0.0000
16:56 28.4 4 21 80 0.8 1.9 1013.4 0.0000 0.0000
17:06 28.2 3.1 20 73 0.6 1.9 1013.2 0.0000 0.0000
17:16 27.9 3.6 21 90 0.8 1.9 1013.4 0.0000 0.0000
17:26 27.7 3.4 21 62 0.8 2.2 1013.2 0.0000 0.0000
17:36 27.3 3.7 22 48 0.6 1.4 1013.4 0.0000 0.0000
17:46 27 3.5 22 42 0.6 1.7 1013.4 0.0000 0.0000
17:56 26.6 3.8 23 53 0.6 1.4 1013.5 0.0000 0.0000
18:06 26.1 4 24 23 0.6 1.4 1013.4 0.0000 0.0000
18:16 25.6 3.6 24 33 0.6 1.7 1013.4 0.0000 0.0000
18:26 25.3 3.9 25 30 0.6 1.4 1013.5 0.0000 0.0000
18:37 24.9 3.5 25 32 0.6 1.4 1013.2 0.0000 0.0000
18:46 24.7 3.9 26 315 0.3 1.4 1013.2 0.0000 0.0000
18:56 24.5 3.2 25 303 0.3 1.7 1013.2 0.0000 0.0000
19:06 24.3 3 25 163 1.1 2.5 1013.2 0.0000 0.0000
19:16 24.1 3.4 26 164 0.8 2.2 1013.2 0.0000 0.0000
19:26 23.8 3.7 27 167 0.6 1.7 1013.2 0.0000 0.0000
19:36 23.4 3.4 27 172 0.3 1.4 1013.2 0.0000 0.0000
19:47 23 2.5 26 137 0.6 1.4 1013.5 0.0000 0.0000
19:56 22.9 0.7 23 90 0.3 1.1 1013.2 0.0000 0.0000
20:06 23 -2.3 18 90 0.3 1.7 1013.4 0.0000 0.0000
20:16 22.9 -3 17 90 0.3 0.8 1013.5 0.0000 0.0000
20:27 22.6 -2.6 18 90 0.3 1.4 1013.4 0.0000 0.0000
20:36 22.8 -1.2 20 48 0.6 1.7 1013.5 0.0000 0.0000
20:46 23 3 27 67 0.6 2.8 1013.7 0.0000 0.0000
20:57 23.3 3.3 27 45 0.6 1.4 1013.6 0.0000 0.0000
21:06 23.5 4 28 90 0.3 1.1 1013.6 0.0000 0.0000
21:16 23.4 4.4 29 165 0.8 2.5 1013.6 0.0000 0.0000
21:27 23.3 4.8 30 141 0.6 1.9 1013.7 0.0000 0.0000
21:37 23.3 5.2 31 162 0.6 1.9 1013.6 0.0000 0.0000
21:46 23.3 5.7 32 153 1.1 2.5 1013.5 0.0000 0.0000
21:56 23.3 5.7 32 151 1.1 3.1 1013.6 0.0000 0.0000
22:07 23.2 6.1 33 156 0.8 2.8 1013.6 0.0000 0.0000
22:17 23.3 6.6 34 150 1.1 3.1 1013.6 0.0000 0.0000
22:26 23.2 6.5 34 143 0.8 2.2 1013.7 0.0000 0.0000
22:37 23.3 7 35 145 1.1 2.5 1013.6 0.0000 0.0000
22:47 23.2 6.9 35 152 0.8 2.8 1013.6 0.0000 0.0000
22:56 23 6.7 35 163 0.3 0.8 1013.7 0.0000 0.0000
23:06 22.6 6.8 36 171 0.3 0.8 1013.7 0.0000 0.0000
23:17 22.3 6.9 37 255 0.6 1.9 1013.8 0.0000 0.0000
23:27 22.4 7 37 15 0.6 1.1 1013.7 0.0000 0.0000
23:36 22.5 7.1 37 35 0.3 1.4 1013.8 0.0000 0.0000
23:47 22.5 7.1 37 36 0.6 1.9 1013.7 0.0000 0.0000
23:57 22.3 6.9 37 33 0.6 1.7 1013.9 0.0000 0.0000

DAY STATISTIC

2018-09-22
TEMPERATURE
AVERAGE
24.9
HIGH
30.7
14:06
LOW
21.0
06:35
PRESSURE
AVERAGE
1015.2
HIGH
1017.7
09:45
LOW
1013.2
17:06
DEWPOINT
AVERAGE
8.1
HIGH
12.9
06:25
LOW
-3.0
20:16
HUMIDITY
AVERAGE
36
HIGH
60
06:35
LOW
17
20:16
WIND SPEED
AVERAGE
0.8
HIGH
1.7
09:25
WIND GUST
AVERAGE
2.4
HIGH
6.1
07:55
WIND DIRECTION
PREVAILING
NE
33.3%
N
5.6
NE
33.3
E
31.3
SE
17.4
S
8.3
SW
0.0
W
1.4
NW
2.8
PRECIPITATION
RAIN HOUR
0.0
RAIN DAY
0.0
TEMPERATURE (°C)
LOW
21.0
HIGH
30.7
AVERAGE
24.9
PRESSURE (hpa)
LOW
1013.2
HIGH
1017.7
AVERAGE
1015.2
DEVICE